createdAt,value
2023-03-07T00:01:16.869Z,97.97
2023-03-07T00:03:50.053Z,97.59
2023-03-07T00:06:36.939Z,97.96
2023-03-07T00:09:16.877Z,98.04
2023-03-07T00:12:03.845Z,98.11
2023-03-07T00:14:36.967Z,98.50
2023-03-07T00:17:23.850Z,98.71
2023-03-07T00:19:56.983Z,98.42
2023-03-07T00:22:43.849Z,98.51
2023-03-07T00:25:17.938Z,98.68
2023-03-07T00:28:04.898Z,98.56
2023-03-07T00:30:37.943Z,98.44
2023-03-07T00:33:24.884Z,98.69
2023-03-07T00:36:09.959Z,98.88
2023-03-07T00:38:57.895Z,98.88
2023-03-07T00:41:34.021Z,98.55
2023-03-07T00:44:21.846Z,99.04
2023-03-07T00:46:54.962Z,99.14
2023-03-07T00:49:41.892Z,98.91
2023-03-07T00:52:15.056Z,99.13
2023-03-07T00:55:01.969Z,98.92
2023-03-07T00:57:34.971Z,98.99
2023-03-07T01:00:21.867Z,99.30
2023-03-07T01:03:03.861Z,99.50
2023-03-07T01:05:57.880Z,99.58
2023-03-07T01:08:44.880Z,99.62
2023-03-07T01:11:19.038Z,99.46
2023-03-07T01:14:07.933Z,99.85
2023-03-07T01:16:44.206Z,99.66
2023-03-07T01:19:30.885Z,99.88
2023-03-07T01:22:03.976Z,99.63
2023-03-07T01:24:50.893Z,99.86
2023-03-07T01:27:23.984Z,99.98
2023-03-07T01:30:12.861Z,99.70
2023-03-07T01:32:52.913Z,100.00
2023-03-07T01:35:45.872Z,100.00
2023-03-07T01:38:19.012Z,100.00
2023-03-07T01:41:08.885Z,100.00
2023-03-07T01:43:42.990Z,100.00
2023-03-07T01:46:56.932Z,100.00
2023-03-07T01:49:47.901Z,100.00
2023-03-07T01:52:55.005Z,100.00
2023-03-07T01:55:43.895Z,100.00
2023-03-07T01:58:20.012Z,100.00
2023-03-07T02:01:06.959Z,100.00
2023-03-07T02:03:49.993Z,99.86
2023-03-07T02:06:41.947Z,99.90
2023-03-07T02:09:27.876Z,99.92
2023-03-07T02:12:08.897Z,100.00
2023-03-07T02:14:53.895Z,100.00
2023-03-07T02:17:27.982Z,100.00
2023-03-07T02:20:56.884Z,100.00
2023-03-07T02:24:13.998Z,100.00
2023-03-07T02:27:00.890Z,100.00
2023-03-07T02:29:40.910Z,100.00
2023-03-07T02:32:34.961Z,100.00
2023-03-07T02:35:37.979Z,100.00
2023-03-07T02:38:31.903Z,100.00
2023-03-07T02:41:19.881Z,100.00
2023-03-07T02:43:59.933Z,100.00
2023-03-07T02:46:46.889Z,100.00
2023-03-07T02:49:27.897Z,100.00
2023-03-07T02:52:21.903Z,100.00
2023-03-07T02:55:15.896Z,100.00
2023-03-07T02:58:02.922Z,100.00
2023-03-07T03:00:37.103Z,100.00
2023-03-07T03:03:23.911Z,100.00
2023-03-07T03:06:03.943Z,100.00
2023-03-07T03:08:50.932Z,100.00
2023-03-07T03:11:30.902Z,100.00
2023-03-07T03:14:24.932Z,100.00
2023-03-07T03:17:11.942Z,100.00
2023-03-07T03:19:45.020Z,100.00
2023-03-07T03:22:31.915Z,100.00
2023-03-07T03:25:05.010Z,100.00
2023-03-07T03:27:51.909Z,100.00
2023-03-07T03:30:26.721Z,100.00
2023-03-07T03:33:13.916Z,100.00
2023-03-07T03:35:47.092Z,100.00
2023-03-07T03:38:33.926Z,100.00
2023-03-07T03:41:11.038Z,100.00
2023-03-07T03:43:58.017Z,100.00
2023-03-07T03:46:31.035Z,100.00
2023-03-07T03:49:22.935Z,100.00
2023-03-07T03:51:56.038Z,100.00
2023-03-07T03:54:42.961Z,100.00
2023-03-07T03:57:18.042Z,100.00
2023-03-07T04:00:04.911Z,100.00
2023-03-07T04:02:38.214Z,100.00
2023-03-07T04:05:24.928Z,100.00
2023-03-07T04:08:04.942Z,100.00
2023-03-07T04:10:58.989Z,100.00
2023-03-07T04:13:45.956Z,100.00
2023-03-07T04:16:19.157Z,100.00
2023-03-07T04:19:05.944Z,100.00
2023-03-07T04:21:39.754Z,100.00
2023-03-07T04:24:26.931Z,100.00
2023-03-07T04:27:00.135Z,100.00
2023-03-07T04:29:46.926Z,100.00
2023-03-07T04:32:20.177Z,100.00
2023-03-07T04:35:06.981Z,100.00
2023-03-07T04:37:46.935Z,100.00
2023-03-07T04:40:41.061Z,100.00
2023-03-07T04:43:34.946Z,100.00
2023-03-07T04:46:15.990Z,100.00
2023-03-07T04:48:55.959Z,100.00
2023-03-07T04:51:30.045Z,100.00
2023-03-07T04:54:16.937Z,100.00
2023-03-07T04:56:50.107Z,100.00
2023-03-07T04:59:37.087Z,100.00
2023-03-07T05:02:10.065Z,100.00
2023-03-07T05:04:56.974Z,100.00
2023-03-07T05:07:37.068Z,100.00
2023-03-07T05:10:23.927Z,100.00
2023-03-07T05:12:57.064Z,100.00
2023-03-07T05:15:44.055Z,100.00
2023-03-07T05:18:24.013Z,100.00
2023-03-07T05:21:10.952Z,100.00
2023-03-07T05:23:44.120Z,100.00
2023-03-07T05:26:30.959Z,100.00
2023-03-07T05:29:04.547Z,100.00
2023-03-07T05:31:50.965Z,100.00
2023-03-07T05:34:24.121Z,100.00
2023-03-07T05:37:10.942Z,100.00
2023-03-07T05:39:44.051Z,100.00
2023-03-07T05:42:30.957Z,100.00
2023-03-07T05:45:04.139Z,100.00
2023-03-07T05:47:50.973Z,100.00
2023-03-07T05:50:31.957Z,100.00
2023-03-07T05:53:25.977Z,100.00
2023-03-07T05:56:12.992Z,100.00
2023-03-07T05:58:52.975Z,100.00
2023-03-07T06:01:47.968Z,100.00
2023-03-07T06:04:42.006Z,100.00
2023-03-07T06:07:28.977Z,100.00
2023-03-07T06:10:08.953Z,100.00
2023-03-07T06:13:06.962Z,100.00
2023-03-07T06:15:57.973Z,100.00
2023-03-07T06:18:32.067Z,100.00
2023-03-07T06:21:22.963Z,100.00
2023-03-07T06:24:02.972Z,100.00
2023-03-07T06:26:56.987Z,100.00
2023-03-07T06:29:50.979Z,100.00
2023-03-07T06:32:45.976Z,100.00
2023-03-07T06:35:32.997Z,100.00
2023-03-07T06:38:13.003Z,100.00
2023-03-07T06:41:09.978Z,100.00
2023-03-07T06:43:59.974Z,100.00
2023-03-07T06:46:33.093Z,100.00
2023-03-07T06:49:19.982Z,100.00
2023-03-07T06:51:53.121Z,100.00
2023-03-07T06:54:39.967Z,100.00
2023-03-07T06:57:13.080Z,100.00
2023-03-07T06:59:59.983Z,100.00
2023-03-07T07:02:33.219Z,100.00
2023-03-07T07:05:19.992Z,100.00
2023-03-07T07:07:53.112Z,100.00
2023-03-07T07:10:40.013Z,100.00
2023-03-07T07:13:13.084Z,100.00
2023-03-07T07:15:59.984Z,100.00
2023-03-07T07:18:33.089Z,100.00
2023-03-07T07:21:20.011Z,100.00
2023-03-07T07:23:53.106Z,100.00
2023-03-07T07:26:39.980Z,100.00
2023-03-07T07:29:13.660Z,100.00
2023-03-07T07:32:00.046Z,100.00
2023-03-07T07:34:33.128Z,100.00
2023-03-07T07:37:20.034Z,99.75
2023-03-07T07:39:53.074Z,99.60
2023-03-07T07:42:40.012Z,99.29
2023-03-07T07:45:14.096Z,99.31
2023-03-07T07:48:01.000Z,99.36
2023-03-07T07:50:34.152Z,99.27
2023-03-07T07:53:24.000Z,98.84
2023-03-07T07:56:04.024Z,98.52
2023-03-07T07:58:51.014Z,97.96
2023-03-07T08:01:37.046Z,97.47
2023-03-07T08:04:31.015Z,96.03
2023-03-07T08:07:25.010Z,95.33
2023-03-07T08:10:12.037Z,93.48
2023-03-07T08:12:52.005Z,93.18
2023-03-07T08:15:46.077Z,92.21
2023-03-07T08:18:33.020Z,90.67
2023-03-07T08:21:06.206Z,91.77
2023-03-07T08:23:53.047Z,90.64
2023-03-07T08:26:26.727Z,90.91
2023-03-07T08:29:13.032Z,90.89
2023-03-07T08:31:51.827Z,89.00
2023-03-07T08:34:39.094Z,89.81
2023-03-07T08:37:12.193Z,89.50
2023-03-07T08:39:59.007Z,88.15
2023-03-07T08:42:32.185Z,87.96
2023-03-07T08:45:19.026Z,87.12
2023-03-07T08:47:52.137Z,86.58
2023-03-07T08:50:39.030Z,86.80
2023-03-07T08:53:19.013Z,85.90
2023-03-07T08:56:13.052Z,85.28
2023-03-07T08:59:07.024Z,85.44
2023-03-07T09:01:54.126Z,84.69
2023-03-07T09:04:27.173Z,85.14
2023-03-07T09:07:14.038Z,82.81
2023-03-07T09:09:54.027Z,83.62
2023-03-07T09:12:48.030Z,83.33
2023-03-07T09:15:42.037Z,79.27
2023-03-07T09:18:36.020Z,79.00
2023-03-07T09:21:30.035Z,79.81
2023-03-07T09:24:24.056Z,79.95
2023-03-07T09:27:18.059Z,79.09
2023-03-07T09:30:12.053Z,79.95
2023-03-07T09:33:06.075Z,78.83
2023-03-07T09:36:00.120Z,79.58
2023-03-07T09:38:57.754Z,78.81
2023-03-07T09:42:20.056Z,78.94
2023-03-07T09:45:26.066Z,79.14
2023-03-07T09:48:11.143Z,78.15
2023-03-07T09:51:11.501Z,78.46
2023-03-07T09:54:15.070Z,77.68
2023-03-07T09:57:15.340Z,77.88
2023-03-07T10:00:07.136Z,75.94
2023-03-07T10:02:56.175Z,77.64
2023-03-07T10:05:51.060Z,77.72
2023-03-07T10:08:40.062Z,77.74
2023-03-07T10:12:05.002Z,76.54
2023-03-07T10:15:29.083Z,76.48
2023-03-07T10:18:25.069Z,76.38
2023-03-07T10:21:26.062Z,75.99
2023-03-07T10:24:48.144Z,74.60
2023-03-07T10:27:23.164Z,75.17
2023-03-07T10:30:22.052Z,74.25
2023-03-07T10:33:09.072Z,74.75
2023-03-07T10:36:05.108Z,74.52
2023-03-07T10:38:59.090Z,73.44
2023-03-07T10:41:46.071Z,74.91
2023-03-07T10:44:25.221Z,75.04
2023-03-07T10:47:12.068Z,74.47
2023-03-07T10:49:53.672Z,73.02
2023-03-07T10:52:57.084Z,72.49
2023-03-07T10:55:50.070Z,74.71
2023-03-07T10:58:37.086Z,74.66
2023-03-07T11:01:34.125Z,73.44
2023-03-07T11:04:40.105Z,72.85
2023-03-07T11:07:50.161Z,72.23
2023-03-07T11:10:53.095Z,71.04
2023-03-07T11:13:41.063Z,72.31
2023-03-07T11:16:27.270Z,72.27
2023-03-07T11:19:41.085Z,70.08
2023-03-07T11:22:49.055Z,71.52
2023-03-07T11:25:50.085Z,70.21
2023-03-07T11:28:42.102Z,70.97
2023-03-07T11:31:50.081Z,68.95
2023-03-07T11:35:19.063Z,69.22
2023-03-07T11:38:27.104Z,69.86
2023-03-07T11:41:21.111Z,69.23
2023-03-07T11:44:54.118Z,68.49
2023-03-07T11:48:29.110Z,68.89
2023-03-07T11:51:04.709Z,68.93
2023-03-07T11:54:13.087Z,68.58
2023-03-07T11:57:00.156Z,69.10
2023-03-07T12:00:32.106Z,67.55
2023-03-07T12:03:31.100Z,67.33
2023-03-07T12:06:39.096Z,67.50
2023-03-07T12:09:36.155Z,68.08
2023-03-07T12:12:34.141Z,68.93
2023-03-07T12:15:43.118Z,68.84
2023-03-07T12:18:56.118Z,69.23
2023-03-07T12:22:02.132Z,69.51
2023-03-07T12:24:50.203Z,69.86
2023-03-07T12:27:52.120Z,70.02
2023-03-07T12:30:55.118Z,69.46
2023-03-07T12:33:44.113Z,69.69
2023-03-07T12:36:27.309Z,70.42
2023-03-07T12:39:38.137Z,70.09
2023-03-07T12:42:35.238Z,70.21
2023-03-07T12:45:30.142Z,70.59
2023-03-07T12:48:21.125Z,71.08
2023-03-07T12:51:29.237Z,70.60
2023-03-07T12:54:31.145Z,70.61
2023-03-07T12:57:48.110Z,69.86
2023-03-07T13:00:36.115Z,70.62
2023-03-07T13:03:10.219Z,71.04
2023-03-07T13:05:58.173Z,70.56
2023-03-07T13:08:32.321Z,71.13
2023-03-07T13:11:34.350Z,71.51
2023-03-07T13:14:10.259Z,71.14
2023-03-07T13:17:01.124Z,71.23
2023-03-07T13:19:50.107Z,71.18
2023-03-07T13:22:44.136Z,71.63
2023-03-07T13:25:33.155Z,70.79
2023-03-07T13:28:08.228Z,71.44
2023-03-07T13:31:20.354Z,71.37
2023-03-07T13:33:53.354Z,70.84
2023-03-07T13:36:43.210Z,70.94
2023-03-07T13:40:15.166Z,70.78
2023-03-07T13:43:09.162Z,71.68
2023-03-07T13:46:17.177Z,71.82
2023-03-07T13:49:04.175Z,72.04
2023-03-07T13:51:44.268Z,72.16
2023-03-07T13:54:38.150Z,72.28
2023-03-07T13:57:30.041Z,72.01
2023-03-07T14:00:04.823Z,72.78
2023-03-07T14:02:52.256Z,72.56
2023-03-07T14:05:26.214Z,72.43
2023-03-07T14:08:21.148Z,72.58
2023-03-07T14:10:55.295Z,72.59
2023-03-07T14:14:16.175Z,72.80
2023-03-07T14:16:56.147Z,73.01
2023-03-07T14:19:56.153Z,72.15
2023-03-07T14:22:58.164Z,72.12
2023-03-07T14:25:41.290Z,73.18
2023-03-07T14:28:34.157Z,72.05
2023-03-07T14:31:10.337Z,72.45
2023-03-07T14:33:58.174Z,72.61
2023-03-07T14:36:36.313Z,72.40
2023-03-07T14:39:23.187Z,72.99
2023-03-07T14:42:03.257Z,72.60
2023-03-07T14:45:17.174Z,72.86
2023-03-07T14:48:14.250Z,73.02
2023-03-07T14:51:01.152Z,72.99
2023-03-07T14:53:38.273Z,73.04
2023-03-07T14:56:34.167Z,73.07
2023-03-07T14:59:27.969Z,73.59
2023-03-07T15:02:32.160Z,73.75
2023-03-07T15:05:25.188Z,74.42
2023-03-07T15:08:05.163Z,74.39
2023-03-07T15:10:56.149Z,73.41
2023-03-07T15:13:48.204Z,73.26
2023-03-07T15:16:48.146Z,72.32
2023-03-07T15:19:49.186Z,71.38
2023-03-07T15:22:39.232Z,71.88
2023-03-07T15:25:35.171Z,71.52
2023-03-07T15:28:27.185Z,70.89
2023-03-07T15:31:00.320Z,69.99
2023-03-07T15:33:47.191Z,69.48
2023-03-07T15:36:20.756Z,70.31
2023-03-07T15:39:33.214Z,70.15
2023-03-07T15:42:12.400Z,71.10
2023-03-07T15:45:06.203Z,71.03
2023-03-07T15:47:48.200Z,71.25
2023-03-07T15:50:42.208Z,70.31
2023-03-07T15:54:07.193Z,70.82
2023-03-07T15:57:08.212Z,71.56
2023-03-07T16:00:27.195Z,71.62
2023-03-07T16:03:18.418Z,71.46
2023-03-07T16:06:07.210Z,71.66
2023-03-07T16:08:47.196Z,71.85
2023-03-07T16:11:41.207Z,71.94
2023-03-07T16:14:38.210Z,71.88
2023-03-07T16:17:53.090Z,72.51
2023-03-07T16:20:40.208Z,72.84
2023-03-07T16:23:19.339Z,72.83
2023-03-07T16:26:10.198Z,73.42
2023-03-07T16:28:44.254Z,73.79
2023-03-07T16:31:31.351Z,74.14
2023-03-07T16:34:11.195Z,74.09
2023-03-07T16:37:05.196Z,74.47
2023-03-07T16:39:52.206Z,75.08
2023-03-07T16:42:30.687Z,74.81
2023-03-07T16:45:35.258Z,75.29
2023-03-07T16:48:08.305Z,75.39
2023-03-07T16:50:55.209Z,75.21
2023-03-07T16:53:28.373Z,75.25
2023-03-07T16:56:25.233Z,75.31
2023-03-07T16:58:59.359Z,75.47
2023-03-07T17:01:47.256Z,76.04
2023-03-07T17:04:28.200Z,75.99
2023-03-07T17:07:33.211Z,75.89
2023-03-07T17:10:20.217Z,76.09
2023-03-07T17:12:55.082Z,76.11
2023-03-07T17:15:43.275Z,76.38
2023-03-07T17:18:17.395Z,76.71
2023-03-07T17:21:04.230Z,76.28
2023-03-07T17:23:37.366Z,76.51
2023-03-07T17:26:37.204Z,77.00
2023-03-07T17:29:16.324Z,76.95
2023-03-07T17:32:03.333Z,77.95
2023-03-07T17:34:39.433Z,77.46
2023-03-07T17:37:26.245Z,77.67
2023-03-07T17:40:00.585Z,77.81
2023-03-07T17:42:49.236Z,78.18
2023-03-07T17:45:25.337Z,78.17
2023-03-07T17:48:12.259Z,78.61
2023-03-07T17:50:46.390Z,79.10
2023-03-07T17:53:40.209Z,79.46
2023-03-07T17:56:34.239Z,80.32
2023-03-07T17:59:28.235Z,81.28
2023-03-07T18:02:25.246Z,81.21
2023-03-07T18:05:13.227Z,82.26
2023-03-07T18:07:58.242Z,81.93
2023-03-07T18:10:52.235Z,82.08
2023-03-07T18:13:39.262Z,82.41
2023-03-07T18:16:13.378Z,82.80
2023-03-07T18:19:02.900Z,83.39
2023-03-07T18:21:37.388Z,83.29
2023-03-07T18:24:30.350Z,83.86
2023-03-07T18:27:08.651Z,84.24
2023-03-07T18:29:55.304Z,84.30
2023-03-07T18:32:29.301Z,84.93
2023-03-07T18:35:16.252Z,85.07
2023-03-07T18:37:56.251Z,85.43
2023-03-07T18:40:43.290Z,85.66
2023-03-07T18:43:23.290Z,85.86
2023-03-07T18:46:15.339Z,85.95
2023-03-07T18:48:49.354Z,85.73
2023-03-07T18:51:36.251Z,86.12
2023-03-07T18:54:09.571Z,85.92
2023-03-07T18:56:56.249Z,86.42
2023-03-07T18:59:36.262Z,86.25
2023-03-07T19:02:30.316Z,86.31
2023-03-07T19:05:17.239Z,86.61
2023-03-07T19:07:50.372Z,86.60
2023-03-07T19:10:37.238Z,86.49
2023-03-07T19:13:11.517Z,86.56
2023-03-07T19:16:07.322Z,86.71
2023-03-07T19:18:48.289Z,86.76
2023-03-07T19:21:43.264Z,87.36
2023-03-07T19:24:30.254Z,87.38
2023-03-07T19:27:03.357Z,87.08
2023-03-07T19:29:50.263Z,87.42
2023-03-07T19:32:23.513Z,87.21
2023-03-07T19:35:11.276Z,87.46
2023-03-07T19:37:52.308Z,87.43
2023-03-07T19:40:46.284Z,87.42
2023-03-07T19:43:41.393Z,87.38
2023-03-07T19:46:35.272Z,87.53
2023-03-07T19:49:33.267Z,87.94
2023-03-07T19:52:27.288Z,87.93
2023-03-07T19:55:21.312Z,88.27
2023-03-07T19:58:15.275Z,87.82
2023-03-07T20:01:09.369Z,88.07
2023-03-07T20:03:57.280Z,88.02
2023-03-07T20:06:33.429Z,87.81
2023-03-07T20:09:20.270Z,88.08
2023-03-07T20:12:00.280Z,88.15
2023-03-07T20:14:54.260Z,88.31
2023-03-07T20:17:48.295Z,88.30
2023-03-07T20:20:42.273Z,88.53
2023-03-07T20:23:36.295Z,88.41
2023-03-07T20:26:29.298Z,88.45
2023-03-07T20:29:10.262Z,88.50
2023-03-07T20:32:04.382Z,88.34
2023-03-07T20:34:51.284Z,88.27
2023-03-07T20:37:24.399Z,88.29
2023-03-07T20:40:15.329Z,88.26
2023-03-07T20:42:48.403Z,87.95
2023-03-07T20:45:35.309Z,88.26
2023-03-07T20:48:15.282Z,88.12
2023-03-07T20:51:27.320Z,88.46
2023-03-07T20:54:29.296Z,88.26
2023-03-07T20:57:23.319Z,88.05
2023-03-07T21:00:17.319Z,88.21
2023-03-07T21:03:06.206Z,88.19
2023-03-07T21:05:39.472Z,88.27
2023-03-07T21:08:26.304Z,88.16
2023-03-07T21:11:20.434Z,87.87
2023-03-07T21:14:14.319Z,88.09
2023-03-07T21:17:01.430Z,87.97
2023-03-07T21:19:34.922Z,88.07
2023-03-07T21:22:21.705Z,87.84
2023-03-07T21:24:55.549Z,87.88
2023-03-07T21:27:42.401Z,88.02
2023-03-07T21:30:19.752Z,88.18
2023-03-07T21:33:06.401Z,87.99
2023-03-07T21:35:49.499Z,88.08
2023-03-07T21:38:37.359Z,88.18
2023-03-07T21:41:19.345Z,87.87
2023-03-07T21:44:17.304Z,88.08
2023-03-07T21:47:11.607Z,87.83
2023-03-07T21:49:59.638Z,87.78
2023-03-07T21:52:42.331Z,88.04
2023-03-07T21:55:31.338Z,87.84
2023-03-07T21:58:12.466Z,87.73
2023-03-07T22:01:07.355Z,88.03
2023-03-07T22:04:01.381Z,87.64
2023-03-07T22:06:48.322Z,88.10
2023-03-07T22:09:28.331Z,88.15
2023-03-07T22:12:15.324Z,88.08
2023-03-07T22:14:55.328Z,88.20
2023-03-07T22:17:50.320Z,88.12
2023-03-07T22:20:37.313Z,88.10
2023-03-07T22:23:10.430Z,88.15
2023-03-07T22:25:57.311Z,88.26
2023-03-07T22:28:37.336Z,88.52
2023-03-07T22:31:31.361Z,88.65
2023-03-07T22:34:18.329Z,88.74
2023-03-07T22:36:51.503Z,89.17
2023-03-07T22:39:38.334Z,89.28
2023-03-07T22:42:11.438Z,89.19
2023-03-07T22:44:58.326Z,89.55
2023-03-07T22:47:31.479Z,89.47
2023-03-07T22:50:18.356Z,89.63
2023-03-07T22:52:51.469Z,89.88
2023-03-07T22:55:38.348Z,90.12
2023-03-07T22:58:11.422Z,89.88
2023-03-07T23:00:58.360Z,90.18
2023-03-07T23:03:31.542Z,90.59
2023-03-07T23:06:18.370Z,90.74
2023-03-07T23:08:52.497Z,91.12
2023-03-07T23:11:40.354Z,91.48
2023-03-07T23:14:20.353Z,91.56
2023-03-07T23:17:07.348Z,91.71
2023-03-07T23:19:40.518Z,91.97
2023-03-07T23:22:27.360Z,92.61
2023-03-07T23:25:00.463Z,92.30
2023-03-07T23:27:47.376Z,92.29
2023-03-07T23:30:28.349Z,92.42
2023-03-07T23:33:22.366Z,92.44
2023-03-07T23:36:09.365Z,92.30
2023-03-07T23:38:42.469Z,92.18
2023-03-07T23:41:29.361Z,92.60
2023-03-07T23:44:04.447Z,92.54
2023-03-07T23:46:51.391Z,92.93
2023-03-07T23:49:24.550Z,92.87
2023-03-07T23:52:11.427Z,92.71
2023-03-07T23:54:51.467Z,92.80
2023-03-07T23:57:45.342Z,92.97
